Terminal Aerodrome Forecast
Issued by NWS

Home | Current Version | Previous Version | Text Only | Print | Product List | Glossary On
Versions: 1 2 3 4 5 6 7 8 9 10 11 12 13 14 15 16 17 18 19 20 21 22 23 24 25 26 27 28 29 30 31 32 33 34 35 36 37 38 39 40 41 42 43
000
FTUS43 KLOT 061359 AAA
TAFORD
TAF AMD
KORD 061359Z 0614/0718 06004KT 3/4SM BR OVC002
      TEMPO 0614/0616 1/4SM FG
     FM061600 09004KT 4SM BR OVC007
     FM061800 11005KT P6SM SCT020 BKN050
     FM070300 13005KT 6SM HZ FEW004 SCT050
     FM071500 19013KT P6SM SCT050=

USA.gov is the U.S. government's official web portal to all federal, state and local government web resources and services.